sensor_id;sensor_type;location;lat;lon;timestamp;temperature;humidity
17879;DHT22;9065;51.050;13.758;2023-04-15T00:00:17;8.50;99.90
17879;DHT22;9065;51.050;13.758;2023-04-15T00:02:45;8.50;99.90
17879;DHT22;9065;51.050;13.758;2023-04-15T00:05:12;8.40;99.90
17879;DHT22;9065;51.050;13.758;2023-04-15T00:07:39;8.40;99.90
17879;DHT22;9065;51.050;13.758;2023-04-15T00:10:07;8.40;99.90
17879;DHT22;9065;51.050;13.758;2023-04-15T00:12:34;8.50;99.90
17879;DHT22;9065;51.050;13.758;2023-04-15T00:15:03;8.40;99.90
17879;DHT22;9065;51.050;13.758;2023-04-15T00:17:31;8.40;99.90
17879;DHT22;9065;51.050;13.758;2023-04-15T00:19:57;8.40;99.90
17879;DHT22;9065;51.050;13.758;2023-04-15T00:22:26;8.40;99.90
17879;DHT22;9065;51.050;13.758;2023-04-15T00:24:54;8.50;99.90
17879;DHT22;9065;51.050;13.758;2023-04-15T00:27:23;8.50;99.90
17879;DHT22;9065;51.050;13.758;2023-04-15T00:29:50;8.50;99.90
17879;DHT22;9065;51.050;13.758;2023-04-15T00:32:18;8.50;99.90
17879;DHT22;9065;51.050;13.758;2023-04-15T00:34:45;8.40;99.90
17879;DHT22;9065;51.050;13.758;2023-04-15T00:37:12;8.50;99.90
17879;DHT22;9065;51.050;13.758;2023-04-15T00:39:39;8.50;99.90
17879;DHT22;9065;51.050;13.758;2023-04-15T00:42:06;8.50;99.90
17879;DHT22;9065;51.050;13.758;2023-04-15T00:44:33;8.50;99.90
17879;DHT22;9065;51.050;13.758;2023-04-15T00:47:03;8.50;99.90
17879;DHT22;9065;51.050;13.758;2023-04-15T00:49:32;8.50;99.90
17879;DHT22;9065;51.050;13.758;2023-04-15T00:51:59;8.50;99.90
17879;DHT22;9065;51.050;13.758;2023-04-15T00:54:26;8.50;99.90
17879;DHT22;9065;51.050;13.758;2023-04-15T00:56:52;8.50;99.90
17879;DHT22;9065;51.050;13.758;2023-04-15T00:59:20;8.50;99.90
17879;DHT22;9065;51.050;13.758;2023-04-15T01:01:47;8.50;99.90
17879;DHT22;9065;51.050;13.758;2023-04-15T01:04:15;8.50;99.90
17879;DHT22;9065;51.050;13.758;2023-04-15T01:06:43;8.50;99.90
17879;DHT22;9065;51.050;13.758;2023-04-15T01:09:10;8.50;99.90
17879;DHT22;9065;51.050;13.758;2023-04-15T01:11:37;8.50;99.90
17879;DHT22;9065;51.050;13.758;2023-04-15T01:14:04;8.50;99.90
17879;DHT22;9065;51.050;13.758;2023-04-15T01:16:31;8.50;99.90
17879;DHT22;9065;51.050;13.758;2023-04-15T01:18:58;8.50;99.90
17879;DHT22;9065;51.050;13.758;2023-04-15T01:21:28;8.50;99.90
17879;DHT22;9065;51.050;13.758;2023-04-15T01:23:56;8.50;99.90
17879;DHT22;9065;51.050;13.758;2023-04-15T01:26:27;8.50;99.90
17879;DHT22;9065;51.050;13.758;2023-04-15T01:28:55;8.50;99.90
17879;DHT22;9065;51.050;13.758;2023-04-15T01:31:22;8.50;99.90
17879;DHT22;9065;51.050;13.758;2023-04-15T01:33:48;8.50;99.90
17879;DHT22;9065;51.050;13.758;2023-04-15T01:36:15;8.60;99.90
17879;DHT22;9065;51.050;13.758;2023-04-15T01:38:42;8.60;99.90
17879;DHT22;9065;51.050;13.758;2023-04-15T01:41:09;8.50;99.90
17879;DHT22;9065;51.050;13.758;2023-04-15T01:43:39;8.50;99.90
17879;DHT22;9065;51.050;13.758;2023-04-15T01:46:06;8.50;99.90
17879;DHT22;9065;51.050;13.758;2023-04-15T01:48:33;8.50;99.90
17879;DHT22;9065;51.050;13.758;2023-04-15T01:51:00;8.60;99.90
17879;DHT22;9065;51.050;13.758;2023-04-15T01:53:27;8.60;99.90
17879;DHT22;9065;51.050;13.758;2023-04-15T01:55:54;8.60;99.90
17879;DHT22;9065;51.050;13.758;2023-04-15T01:58:22;8.60;99.90
17879;DHT22;9065;51.050;13.758;2023-04-15T02:00:50;8.50;99.90
17879;DHT22;9065;51.050;13.758;2023-04-15T02:03:18;8.60;99.90
17879;DHT22;9065;51.050;13.758;2023-04-15T02:05:44;8.50;99.90
17879;DHT22;9065;51.050;13.758;2023-04-15T02:08:11;8.50;99.90
17879;DHT22;9065;51.050;13.758;2023-04-15T02:10:38;8.50;99.90
17879;DHT22;9065;51.050;13.758;2023-04-15T02:13:05;8.50;99.90
17879;DHT22;9065;51.050;13.758;2023-04-15T02:15:31;8.50;99.90
17879;DHT22;9065;51.050;13.758;2023-04-15T02:18:00;8.50;99.90
17879;DHT22;9065;51.050;13.758;2023-04-15T02:20:27;8.50;99.90
17879;DHT22;9065;51.050;13.758;2023-04-15T02:22:55;8.50;99.90
17879;DHT22;9065;51.050;13.758;2023-04-15T02:25:22;8.50;99.90
17879;DHT22;9065;51.050;13.758;2023-04-15T02:27:49;8.50;99.90
17879;DHT22;9065;51.050;13.758;2023-04-15T02:30:16;8.50;99.90
17879;DHT22;9065;51.050;13.758;2023-04-15T02:32:43;8.50;99.90
17879;DHT22;9065;51.050;13.758;2023-04-15T02:35:13;8.50;99.90
17879;DHT22;9065;51.050;13.758;2023-04-15T02:37:39;8.50;99.90
17879;DHT22;9065;51.050;13.758;2023-04-15T02:40:08;8.50;99.90
17879;DHT22;9065;51.050;13.758;2023-04-15T02:42:37;8.50;99.90
17879;DHT22;9065;51.050;13.758;2023-04-15T02:45:04;8.50;99.90
17879;DHT22;9065;51.050;13.758;2023-04-15T02:47:31;8.60;99.90
17879;DHT22;9065;51.050;13.758;2023-04-15T02:49:58;8.60;99.90
17879;DHT22;9065;51.050;13.758;2023-04-15T02:52:27;8.60;99.90
17879;DHT22;9065;51.050;13.758;2023-04-15T02:54:54;8.60;99.90
17879;DHT22;9065;51.050;13.758;2023-04-15T02:57:25;8.60;99.90
17879;DHT22;9065;51.050;13.758;2023-04-15T02:59:54;8.60;99.90
17879;DHT22;9065;51.050;13.758;2023-04-15T03:02:21;8.70;99.90
17879;DHT22;9065;51.050;13.758;2023-04-15T03:04:48;8.60;99.90
17879;DHT22;9065;51.050;13.758;2023-04-15T03:07:18;8.60;99.90
17879;DHT22;9065;51.050;13.758;2023-04-15T03:09:46;8.60;99.90
17879;DHT22;9065;51.050;13.758;2023-04-15T03:12:13;8.60;99.90
17879;DHT22;9065;51.050;13.758;2023-04-15T03:14:40;8.60;99.90
17879;DHT22;9065;51.050;13.758;2023-04-15T03:17:07;8.60;99.90
17879;DHT22;9065;51.050;13.758;2023-04-15T03:19:33;8.50;99.90
17879;DHT22;9065;51.050;13.758;2023-04-15T03:22:00;8.60;99.90
17879;DHT22;9065;51.050;13.758;2023-04-15T03:24:27;8.60;99.90
17879;DHT22;9065;51.050;13.758;2023-04-15T03:26:56;8.50;99.90
17879;DHT22;9065;51.050;13.758;2023-04-15T03:29:24;8.70;99.90
17879;DHT22;9065;51.050;13.758;2023-04-15T03:31:52;8.60;99.90
17879;DHT22;9065;51.050;13.758;2023-04-15T03:34:19;8.60;99.90
17879;DHT22;9065;51.050;13.758;2023-04-15T03:36:46;8.60;99.90
17879;DHT22;9065;51.050;13.758;2023-04-15T03:39:12;8.60;99.90
17879;DHT22;9065;51.050;13.758;2023-04-15T03:41:39;8.60;99.90
17879;DHT22;9065;51.050;13.758;2023-04-15T03:44:07;8.60;99.90
17879;DHT22;9065;51.050;13.758;2023-04-15T03:46:34;8.60;99.90
17879;DHT22;9065;51.050;13.758;2023-04-15T03:49:01;8.60;99.90
17879;DHT22;9065;51.050;13.758;2023-04-15T03:51:28;8.60;99.90
17879;DHT22;9065;51.050;13.758;2023-04-15T03:53:57;8.60;99.90
17879;DHT22;9065;51.050;13.758;2023-04-15T03:56:24;8.60;99.90
17879;DHT22;9065;51.050;13.758;2023-04-15T03:58:51;8.60;99.90
17879;DHT22;9065;51.050;13.758;2023-04-15T04:01:20;8.50;99.90
17879;DHT22;9065;51.050;13.758;2023-04-15T04:03:47;8.60;99.90
17879;DHT22;9065;51.050;13.758;2023-04-15T04:06:14;8.60;99.90
17879;DHT22;9065;51.050;13.758;2023-04-15T04:08:41;8.50;99.90
17879;DHT22;9065;51.050;13.758;2023-04-15T04:11:08;8.50;99.90
17879;DHT22;9065;51.050;13.758;2023-04-15T04:13:34;8.50;99.90
17879;DHT22;9065;51.050;13.758;2023-04-15T04:16:03;8.60;99.90
17879;DHT22;9065;51.050;13.758;2023-04-15T04:18:32;8.60;99.90
17879;DHT22;9065;51.050;13.758;2023-04-15T04:20:59;8.60;99.90
17879;DHT22;9065;51.050;13.758;2023-04-15T04:23:26;8.60;99.90
17879;DHT22;9065;51.050;13.758;2023-04-15T04:25:53;8.60;99.90
17879;DHT22;9065;51.050;13.758;2023-04-15T04:28:19;8.60;99.90
17879;DHT22;9065;51.050;13.758;2023-04-15T04:30:46;8.60;99.90
17879;DHT22;9065;51.050;13.758;2023-04-15T04:33:13;8.60;99.90
17879;DHT22;9065;51.050;13.758;2023-04-15T04:35:41;8.60;99.90
17879;DHT22;9065;51.050;13.758;2023-04-15T04:38:08;8.60;99.90
17879;DHT22;9065;51.050;13.758;2023-04-15T04:40:35;8.60;99.90
17879;DHT22;9065;51.050;13.758;2023-04-15T04:43:02;8.70;99.90
17879;DHT22;9065;51.050;13.758;2023-04-15T04:45:29;8.60;99.90
17879;DHT22;9065;51.050;13.758;2023-04-15T04:47:55;8.60;99.90
17879;DHT22;9065;51.050;13.758;2023-04-15T04:50:23;8.60;99.90
17879;DHT22;9065;51.050;13.758;2023-04-15T04:52:51;8.60;99.90
17879;DHT22;9065;51.050;13.758;2023-04-15T04:55:18;8.70;99.90
17879;DHT22;9065;51.050;13.758;2023-04-15T04:57:45;8.70;99.90
17879;DHT22;9065;51.050;13.758;2023-04-15T05:00:12;8.70;99.90
17879;DHT22;9065;51.050;13.758;2023-04-15T05:02:39;8.70;99.90
17879;DHT22;9065;51.050;13.758;2023-04-15T05:05:09;8.70;99.90
17879;DHT22;9065;51.050;13.758;2023-04-15T05:07:37;8.70;99.90
17879;DHT22;9065;51.050;13.758;2023-04-15T05:10:07;8.70;99.90
17879;DHT22;9065;51.050;13.758;2023-04-15T05:12:34;8.70;99.90
17879;DHT22;9065;51.050;13.758;2023-04-15T05:15:07;8.70;99.90
17879;DHT22;9065;51.050;13.758;2023-04-15T05:17:35;8.80;99.90
17879;DHT22;9065;51.050;13.758;2023-04-15T05:20:02;8.80;99.90
17879;DHT22;9065;51.050;13.758;2023-04-15T05:22:29;8.90;99.90
17879;DHT22;9065;51.050;13.758;2023-04-15T05:24:56;9.00;99.90
17879;DHT22;9065;51.050;13.758;2023-04-15T05:27:24;9.00;99.90
17879;DHT22;9065;51.050;13.758;2023-04-15T05:29:54;9.10;99.90
17879;DHT22;9065;51.050;13.758;2023-04-15T05:32:21;9.20;99.90
17879;DHT22;9065;51.050;13.758;2023-04-15T05:34:53;9.30;99.90
17879;DHT22;9065;51.050;13.758;2023-04-15T05:37:20;9.40;99.90
17879;DHT22;9065;51.050;13.758;2023-04-15T05:39:47;9.40;99.90
17879;DHT22;9065;51.050;13.758;2023-04-15T05:42:14;9.40;99.90
17879;DHT22;9065;51.050;13.758;2023-04-15T05:44:42;9.40;99.90
17879;DHT22;9065;51.050;13.758;2023-04-15T05:47:09;9.40;99.90
17879;DHT22;9065;51.050;13.758;2023-04-15T05:49:38;9.40;99.90
17879;DHT22;9065;51.050;13.758;2023-04-15T05:52:05;9.40;99.90
17879;DHT22;9065;51.050;13.758;2023-04-15T05:54:32;9.50;99.90
17879;DHT22;9065;51.050;13.758;2023-04-15T05:56:59;9.50;99.90
17879;DHT22;9065;51.050;13.758;2023-04-15T05:59:26;9.50;99.90
17879;DHT22;9065;51.050;13.758;2023-04-15T06:01:55;9.50;99.90
17879;DHT22;9065;51.050;13.758;2023-04-15T06:04:22;9.40;99.90
17879;DHT22;9065;51.050;13.758;2023-04-15T06:06:49;9.40;99.90
17879;DHT22;9065;51.050;13.758;2023-04-15T06:09:17;9.40;99.90
17879;DHT22;9065;51.050;13.758;2023-04-15T06:11:43;9.50;99.90
17879;DHT22;9065;51.050;13.758;2023-04-15T06:14:10;9.40;99.90
17879;DHT22;9065;51.050;13.758;2023-04-15T06:16:39;9.50;99.90
17879;DHT22;9065;51.050;13.758;2023-04-15T06:19:07;9.60;99.90
17879;DHT22;9065;51.050;13.758;2023-04-15T06:21:34;9.60;99.90
17879;DHT22;9065;51.050;13.758;2023-04-15T06:24:01;9.60;99.90
17879;DHT22;9065;51.050;13.758;2023-04-15T06:26:34;9.70;99.90
17879;DHT22;9065;51.050;13.758;2023-04-15T06:29:01;9.70;99.90
17879;DHT22;9065;51.050;13.758;2023-04-15T06:31:29;9.80;99.90
17879;DHT22;9065;51.050;13.758;2023-04-15T06:33:56;9.80;99.90
17879;DHT22;9065;51.050;13.758;2023-04-15T06:36:24;9.80;99.90
17879;DHT22;9065;51.050;13.758;2023-04-15T06:38:51;9.70;99.90
17879;DHT22;9065;51.050;13.758;2023-04-15T06:41:18;9.70;99.90
17879;DHT22;9065;51.050;13.758;2023-04-15T06:43:45;9.70;99.90
17879;DHT22;9065;51.050;13.758;2023-04-15T06:46:12;9.70;99.90
17879;DHT22;9065;51.050;13.758;2023-04-15T06:48:39;9.80;99.90
17879;DHT22;9065;51.050;13.758;2023-04-15T06:51:05;9.80;99.90
17879;DHT22;9065;51.050;13.758;2023-04-15T06:53:35;9.80;99.90
17879;DHT22;9065;51.050;13.758;2023-04-15T06:56:06;9.90;99.90
17879;DHT22;9065;51.050;13.758;2023-04-15T06:58:33;10.00;99.90
17879;DHT22;9065;51.050;13.758;2023-04-15T07:01:00;10.10;99.90
17879;DHT22;9065;51.050;13.758;2023-04-15T07:03:27;10.10;99.90
17879;DHT22;9065;51.050;13.758;2023-04-15T07:05:55;10.20;99.90
17879;DHT22;9065;51.050;13.758;2023-04-15T07:08:22;10.30;99.90
17879;DHT22;9065;51.050;13.758;2023-04-15T07:10:50;10.30;99.90
17879;DHT22;9065;51.050;13.758;2023-04-15T07:13:19;10.30;99.90
17879;DHT22;9065;51.050;13.758;2023-04-15T07:15:46;10.20;99.90
17879;DHT22;9065;51.050;13.758;2023-04-15T07:18:13;10.20;99.90
17879;DHT22;9065;51.050;13.758;2023-04-15T07:20:40;10.20;99.90
17879;DHT22;9065;51.050;13.758;2023-04-15T07:23:07;10.30;99.90
17879;DHT22;9065;51.050;13.758;2023-04-15T07:25:34;10.30;99.90
17879;DHT22;9065;51.050;13.758;2023-04-15T07:28:02;10.30;99.90
17879;DHT22;9065;51.050;13.758;2023-04-15T07:30:29;10.30;99.90
17879;DHT22;9065;51.050;13.758;2023-04-15T07:32:57;10.50;99.90
17879;DHT22;9065;51.050;13.758;2023-04-15T07:35:24;10.40;99.90
17879;DHT22;9065;51.050;13.758;2023-04-15T07:37:52;10.40;99.90
17879;DHT22;9065;51.050;13.758;2023-04-15T07:40:19;10.50;99.90
17879;DHT22;9065;51.050;13.758;2023-04-15T07:42:46;10.50;99.90
17879;DHT22;9065;51.050;13.758;2023-04-15T07:45:15;10.50;99.90
17879;DHT22;9065;51.050;13.758;2023-04-15T07:47:41;10.60;99.90
17879;DHT22;9065;51.050;13.758;2023-04-15T07:50:09;10.60;99.90
17879;DHT22;9065;51.050;13.758;2023-04-15T07:52:36;10.70;99.90
17879;DHT22;9065;51.050;13.758;2023-04-15T07:55:04;10.80;99.90
17879;DHT22;9065;51.050;13.758;2023-04-15T07:57:41;10.80;99.90
17879;DHT22;9065;51.050;13.758;2023-04-15T08:00:10;11.00;99.90
17879;DHT22;9065;51.050;13.758;2023-04-15T08:02:40;11.10;99.90
17879;DHT22;9065;51.050;13.758;2023-04-15T08:05:11;11.30;99.90
17879;DHT22;9065;51.050;13.758;2023-04-15T08:07:40;11.30;99.90
17879;DHT22;9065;51.050;13.758;2023-04-15T08:10:11;11.50;99.90
17879;DHT22;9065;51.050;13.758;2023-04-15T08:12:37;11.60;99.90
17879;DHT22;9065;51.050;13.758;2023-04-15T08:15:05;11.70;99.90
17879;DHT22;9065;51.050;13.758;2023-04-15T08:17:32;11.60;99.90
17879;DHT22;9065;51.050;13.758;2023-04-15T08:20:00;11.50;99.90
17879;DHT22;9065;51.050;13.758;2023-04-15T08:22:28;11.30;99.90
17879;DHT22;9065;51.050;13.758;2023-04-15T08:24:55;11.20;99.90
17879;DHT22;9065;51.050;13.758;2023-04-15T08:27:24;11.10;99.90
17879;DHT22;9065;51.050;13.758;2023-04-15T08:29:50;11.10;99.90
17879;DHT22;9065;51.050;13.758;2023-04-15T08:32:17;11.10;99.90
17879;DHT22;9065;51.050;13.758;2023-04-15T08:34:44;11.00;99.90
17879;DHT22;9065;51.050;13.758;2023-04-15T08:37:12;11.00;99.90
17879;DHT22;9065;51.050;13.758;2023-04-15T08:39:39;10.90;99.90
17879;DHT22;9065;51.050;13.758;2023-04-15T08:42:11;10.90;99.90
17879;DHT22;9065;51.050;13.758;2023-04-15T08:44:39;11.00;99.90
17879;DHT22;9065;51.050;13.758;2023-04-15T08:47:07;11.00;99.90
17879;DHT22;9065;51.050;13.758;2023-04-15T08:49:39;11.00;99.90
17879;DHT22;9065;51.050;13.758;2023-04-15T08:52:06;11.00;99.90
17879;DHT22;9065;51.050;13.758;2023-04-15T08:54:35;10.90;99.90
17879;DHT22;9065;51.050;13.758;2023-04-15T08:57:03;10.90;99.90
17879;DHT22;9065;51.050;13.758;2023-04-15T08:59:31;10.80;99.90
17879;DHT22;9065;51.050;13.758;2023-04-15T09:01:58;10.70;99.90
17879;DHT22;9065;51.050;13.758;2023-04-15T09:04:26;10.60;99.90
17879;DHT22;9065;51.050;13.758;2023-04-15T09:06:53;10.40;99.90
17879;DHT22;9065;51.050;13.758;2023-04-15T09:09:21;10.20;99.90
17879;DHT22;9065;51.050;13.758;2023-04-15T09:11:49;10.00;99.90
17879;DHT22;9065;51.050;13.758;2023-04-15T09:14:16;10.00;99.90
17879;DHT22;9065;51.050;13.758;2023-04-15T09:16:56;9.80;99.90
17879;DHT22;9065;51.050;13.758;2023-04-15T09:19:24;9.70;99.90
17879;DHT22;9065;51.050;13.758;2023-04-15T09:21:52;9.70;99.90
17879;DHT22;9065;51.050;13.758;2023-04-15T09:24:21;9.60;99.90
17879;DHT22;9065;51.050;13.758;2023-04-15T09:26:51;9.50;99.90
17879;DHT22;9065;51.050;13.758;2023-04-15T09:29:18;9.50;99.90
17879;DHT22;9065;51.050;13.758;2023-04-15T09:31:45;9.60;99.90
17879;DHT22;9065;51.050;13.758;2023-04-15T09:34:13;9.50;99.90
17879;DHT22;9065;51.050;13.758;2023-04-15T09:36:52;9.60;99.90
17879;DHT22;9065;51.050;13.758;2023-04-15T09:39:21;9.60;99.90
17879;DHT22;9065;51.050;13.758;2023-04-15T09:42:04;9.70;99.90
17879;DHT22;9065;51.050;13.758;2023-04-15T09:44:32;9.60;99.90
17879;DHT22;9065;51.050;13.758;2023-04-15T09:46:59;9.60;99.90
17879;DHT22;9065;51.050;13.758;2023-04-15T09:49:26;9.50;99.90
17879;DHT22;9065;51.050;13.758;2023-04-15T09:51:57;9.60;99.90
17879;DHT22;9065;51.050;13.758;2023-04-15T09:54:37;9.50;99.90
17879;DHT22;9065;51.050;13.758;2023-04-15T09:57:06;9.60;99.90
17879;DHT22;9065;51.050;13.758;2023-04-15T09:59:34;9.60;99.90
17879;DHT22;9065;51.050;13.758;2023-04-15T10:02:03;9.70;99.90
17879;DHT22;9065;51.050;13.758;2023-04-15T10:04:34;9.70;99.90
17879;DHT22;9065;51.050;13.758;2023-04-15T10:07:02;9.70;99.90
17879;DHT22;9065;51.050;13.758;2023-04-15T10:09:32;9.80;99.90
17879;DHT22;9065;51.050;13.758;2023-04-15T10:11:59;9.90;99.90
17879;DHT22;9065;51.050;13.758;2023-04-15T10:14:31;9.80;99.90
17879;DHT22;9065;51.050;13.758;2023-04-15T10:17:00;9.70;99.90
17879;DHT22;9065;51.050;13.758;2023-04-15T10:19:30;9.60;99.90
17879;DHT22;9065;51.050;13.758;2023-04-15T10:21:59;9.60;99.90
17879;DHT22;9065;51.050;13.758;2023-04-15T10:24:26;9.70;99.90
17879;DHT22;9065;51.050;13.758;2023-04-15T10:26:54;9.80;99.90
17879;DHT22;9065;51.050;13.758;2023-04-15T10:29:24;9.80;99.90
17879;DHT22;9065;51.050;13.758;2023-04-15T10:31:55;9.70;99.90
17879;DHT22;9065;51.050;13.758;2023-04-15T10:34:24;9.70;99.90
17879;DHT22;9065;51.050;13.758;2023-04-15T10:36:54;9.70;99.90
17879;DHT22;9065;51.050;13.758;2023-04-15T10:39:42;9.80;99.90
17879;DHT22;9065;51.050;13.758;2023-04-15T10:42:11;9.80;99.90
17879;DHT22;9065;51.050;13.758;2023-04-15T10:44:41;9.80;99.90
17879;DHT22;9065;51.050;13.758;2023-04-15T10:47:14;9.90;99.90
17879;DHT22;9065;51.050;13.758;2023-04-15T10:49:45;10.00;99.90
17879;DHT22;9065;51.050;13.758;2023-04-15T10:52:22;10.00;99.90
17879;DHT22;9065;51.050;13.758;2023-04-15T10:55:01;10.10;99.90
17879;DHT22;9065;51.050;13.758;2023-04-15T10:57:34;10.10;99.90
17879;DHT22;9065;51.050;13.758;2023-04-15T11:00:09;10.20;99.90
17879;DHT22;9065;51.050;13.758;2023-04-15T11:02:50;10.30;99.90
17879;DHT22;9065;51.050;13.758;2023-04-15T11:05:19;10.50;99.90
17879;DHT22;9065;51.050;13.758;2023-04-15T11:07:49;10.50;99.90
17879;DHT22;9065;51.050;13.758;2023-04-15T11:16:01;10.20;99.90
17879;DHT22;9065;51.050;13.758;2023-04-15T11:18:35;10.30;99.90
17879;DHT22;9065;51.050;13.758;2023-04-15T11:21:04;10.30;99.90
17879;DHT22;9065;51.050;13.758;2023-04-15T11:23:34;10.20;99.90
17879;DHT22;9065;51.050;13.758;2023-04-15T11:26:04;10.30;99.90
17879;DHT22;9065;51.050;13.758;2023-04-15T11:28:34;10.40;99.90
17879;DHT22;9065;51.050;13.758;2023-04-15T11:31:06;10.40;99.90
17879;DHT22;9065;51.050;13.758;2023-04-15T11:33:36;10.40;99.90
17879;DHT22;9065;51.050;13.758;2023-04-15T11:36:04;10.40;99.90
17879;DHT22;9065;51.050;13.758;2023-04-15T11:38:31;10.50;99.90
17879;DHT22;9065;51.050;13.758;2023-04-15T11:41:00;10.50;99.90
17879;DHT22;9065;51.050;13.758;2023-04-15T11:43:27;10.60;99.90
17879;DHT22;9065;51.050;13.758;2023-04-15T11:45:58;10.60;99.90
17879;DHT22;9065;51.050;13.758;2023-04-15T11:48:26;10.70;99.90
17879;DHT22;9065;51.050;13.758;2023-04-15T11:50:56;10.60;99.90
17879;DHT22;9065;51.050;13.758;2023-04-15T11:53:35;10.60;99.90
17879;DHT22;9065;51.050;13.758;2023-04-15T11:56:05;10.70;99.90
17879;DHT22;9065;51.050;13.758;2023-04-15T11:58:33;10.70;99.90
17879;DHT22;9065;51.050;13.758;2023-04-15T12:01:01;10.70;99.90
17879;DHT22;9065;51.050;13.758;2023-04-15T12:03:30;10.70;99.90
17879;DHT22;9065;51.050;13.758;2023-04-15T12:06:18;10.70;99.90
17879;DHT22;9065;51.050;13.758;2023-04-15T12:08:56;10.60;99.90
17879;DHT22;9065;51.050;13.758;2023-04-15T12:11:43;10.60;99.90
17879;DHT22;9065;51.050;13.758;2023-04-15T12:14:12;10.60;99.90
17879;DHT22;9065;51.050;13.758;2023-04-15T12:16:43;10.60;99.90
17879;DHT22;9065;51.050;13.758;2023-04-15T12:19:13;10.50;99.90
17879;DHT22;9065;51.050;13.758;2023-04-15T12:21:45;10.50;99.90
17879;DHT22;9065;51.050;13.758;2023-04-15T12:24:12;10.50;99.90
17879;DHT22;9065;51.050;13.758;2023-04-15T12:26:44;10.60;99.90
17879;DHT22;9065;51.050;13.758;2023-04-15T12:29:16;10.80;99.90
17879;DHT22;9065;51.050;13.758;2023-04-15T12:31:51;11.00;99.90
17879;DHT22;9065;51.050;13.758;2023-04-15T12:34:28;10.90;99.90
17879;DHT22;9065;51.050;13.758;2023-04-15T12:36:59;10.90;99.90
17879;DHT22;9065;51.050;13.758;2023-04-15T12:39:27;10.90;99.90
17879;DHT22;9065;51.050;13.758;2023-04-15T12:41:56;10.90;99.90
17879;DHT22;9065;51.050;13.758;2023-04-15T12:44:23;10.90;99.90
17879;DHT22;9065;51.050;13.758;2023-04-15T12:46:51;10.90;99.90
17879;DHT22;9065;51.050;13.758;2023-04-15T12:49:19;11.10;99.90
17879;DHT22;9065;51.050;13.758;2023-04-15T12:51:48;11.20;99.90
17879;DHT22;9065;51.050;13.758;2023-04-15T12:54:17;11.20;99.90
17879;DHT22;9065;51.050;13.758;2023-04-15T12:56:44;11.40;99.90
17879;DHT22;9065;51.050;13.758;2023-04-15T12:59:11;11.50;99.90
17879;DHT22;9065;51.050;13.758;2023-04-15T13:01:39;11.60;99.90
17879;DHT22;9065;51.050;13.758;2023-04-15T13:04:06;11.50;99.90
17879;DHT22;9065;51.050;13.758;2023-04-15T13:06:36;11.70;99.90
17879;DHT22;9065;51.050;13.758;2023-04-15T13:09:03;11.60;99.90
17879;DHT22;9065;51.050;13.758;2023-04-15T13:11:33;11.70;99.90
17879;DHT22;9065;51.050;13.758;2023-04-15T13:14:00;11.60;99.90
17879;DHT22;9065;51.050;13.758;2023-04-15T13:16:28;11.60;99.90
17879;DHT22;9065;51.050;13.758;2023-04-15T13:18:56;11.70;99.90
17879;DHT22;9065;51.050;13.758;2023-04-15T13:21:24;11.60;99.90
17879;DHT22;9065;51.050;13.758;2023-04-15T13:23:51;11.50;99.90
17879;DHT22;9065;51.050;13.758;2023-04-15T13:26:18;11.50;99.90
17879;DHT22;9065;51.050;13.758;2023-04-15T13:28:47;11.50;99.90
17879;DHT22;9065;51.050;13.758;2023-04-15T13:31:14;11.50;99.90
17879;DHT22;9065;51.050;13.758;2023-04-15T13:33:40;11.70;99.90
17879;DHT22;9065;51.050;13.758;2023-04-15T13:36:07;11.90;99.90
17879;DHT22;9065;51.050;13.758;2023-04-15T13:38:36;12.00;99.90
17879;DHT22;9065;51.050;13.758;2023-04-15T13:41:03;12.10;99.90
17879;DHT22;9065;51.050;13.758;2023-04-15T13:43:30;12.20;99.90
17879;DHT22;9065;51.050;13.758;2023-04-15T13:46:00;12.30;99.90
17879;DHT22;9065;51.050;13.758;2023-04-15T13:48:27;12.60;99.90
17879;DHT22;9065;51.050;13.758;2023-04-15T13:50:54;12.70;99.90
17879;DHT22;9065;51.050;13.758;2023-04-15T13:53:21;12.80;99.90
17879;DHT22;9065;51.050;13.758;2023-04-15T13:55:47;12.80;99.90
17879;DHT22;9065;51.050;13.758;2023-04-15T13:58:15;12.80;99.90
17879;DHT22;9065;51.050;13.758;2023-04-15T14:00:42;12.70;99.90
17879;DHT22;9065;51.050;13.758;2023-04-15T14:03:10;12.70;99.90
17879;DHT22;9065;51.050;13.758;2023-04-15T14:05:37;12.70;99.90
17879;DHT22;9065;51.050;13.758;2023-04-15T14:08:04;12.80;99.90
17879;DHT22;9065;51.050;13.758;2023-04-15T14:10:31;12.80;99.90
17879;DHT22;9065;51.050;13.758;2023-04-15T14:12:58;12.90;99.90
17879;DHT22;9065;51.050;13.758;2023-04-15T14:15:25;12.90;99.90
17879;DHT22;9065;51.050;13.758;2023-04-15T14:17:52;12.80;99.90
17879;DHT22;9065;51.050;13.758;2023-04-15T14:20:22;12.80;99.90
17879;DHT22;9065;51.050;13.758;2023-04-15T14:22:49;12.80;99.90
17879;DHT22;9065;51.050;13.758;2023-04-15T14:25:16;12.80;99.90
17879;DHT22;9065;51.050;13.758;2023-04-15T14:27:45;12.70;99.90
17879;DHT22;9065;51.050;13.758;2023-04-15T14:30:12;12.70;99.90
17879;DHT22;9065;51.050;13.758;2023-04-15T14:32:42;12.70;99.90
17879;DHT22;9065;51.050;13.758;2023-04-15T14:35:09;12.60;99.90
17879;DHT22;9065;51.050;13.758;2023-04-15T14:37:37;12.50;99.90
17879;DHT22;9065;51.050;13.758;2023-04-15T14:40:05;12.50;99.90
17879;DHT22;9065;51.050;13.758;2023-04-15T14:42:32;12.60;99.90
17879;DHT22;9065;51.050;13.758;2023-04-15T14:44:59;12.70;99.90
17879;DHT22;9065;51.050;13.758;2023-04-15T14:47:27;12.80;99.90
17879;DHT22;9065;51.050;13.758;2023-04-15T14:49:55;12.80;99.90
17879;DHT22;9065;51.050;13.758;2023-04-15T14:52:22;13.00;99.90
17879;DHT22;9065;51.050;13.758;2023-04-15T14:54:52;13.20;99.90
17879;DHT22;9065;51.050;13.758;2023-04-15T14:57:22;13.50;99.90
17879;DHT22;9065;51.050;13.758;2023-04-15T14:59:49;13.60;99.90
17879;DHT22;9065;51.050;13.758;2023-04-15T15:02:21;13.80;99.90
17879;DHT22;9065;51.050;13.758;2023-04-15T15:04:47;13.80;99.90
17879;DHT22;9065;51.050;13.758;2023-04-15T15:07:14;13.90;99.90
17879;DHT22;9065;51.050;13.758;2023-04-15T15:09:41;13.90;99.90
17879;DHT22;9065;51.050;13.758;2023-04-15T15:12:09;13.90;99.90
17879;DHT22;9065;51.050;13.758;2023-04-15T15:14:37;14.00;99.90
17879;DHT22;9065;51.050;13.758;2023-04-15T15:17:04;14.00;99.90
17879;DHT22;9065;51.050;13.758;2023-04-15T15:19:31;14.00;99.90
17879;DHT22;9065;51.050;13.758;2023-04-15T15:21:58;13.90;99.90
17879;DHT22;9065;51.050;13.758;2023-04-15T15:24:25;13.90;99.90
17879;DHT22;9065;51.050;13.758;2023-04-15T15:26:52;13.70;99.90
17879;DHT22;9065;51.050;13.758;2023-04-15T15:29:20;13.60;99.90
17879;DHT22;9065;51.050;13.758;2023-04-15T15:31:47;13.50;99.90
17879;DHT22;9065;51.050;13.758;2023-04-15T15:34:14;13.50;99.90
17879;DHT22;9065;51.050;13.758;2023-04-15T15:36:41;13.70;99.90
17879;DHT22;9065;51.050;13.758;2023-04-15T15:39:09;13.70;99.90
17879;DHT22;9065;51.050;13.758;2023-04-15T15:41:36;13.50;99.90
17879;DHT22;9065;51.050;13.758;2023-04-15T15:44:03;13.40;99.90
17879;DHT22;9065;51.050;13.758;2023-04-15T15:46:31;13.20;99.90
17879;DHT22;9065;51.050;13.758;2023-04-15T15:48:58;13.20;99.90
17879;DHT22;9065;51.050;13.758;2023-04-15T15:51:25;13.30;99.90